createdAt,value
2023-03-18T00:01:50.778Z,9.17
2023-03-18T00:04:17.845Z,9.17
2023-03-18T00:06:44.451Z,9.20
2023-03-18T00:09:13.408Z,9.22
2023-03-18T00:11:40.575Z,9.22
2023-03-18T00:14:08.623Z,9.23
2023-03-18T00:16:36.644Z,9.26
2023-03-18T00:19:04.151Z,9.27
2023-03-18T00:21:31.669Z,9.31
2023-03-18T00:23:58.716Z,9.30
2023-03-18T00:26:26.976Z,9.38
2023-03-18T00:28:56.623Z,9.42
2023-03-18T00:31:23.666Z,9.43
2023-03-18T00:33:50.348Z,9.49
2023-03-18T00:36:18.398Z,9.49
2023-03-18T00:38:46.439Z,9.53
2023-03-18T00:41:15.704Z,9.48
2023-03-18T00:43:52.081Z,9.44
2023-03-18T00:46:24.515Z,9.48
2023-03-18T00:48:53.066Z,9.47
2023-03-18T00:51:21.378Z,9.43
2023-03-18T00:53:51.741Z,9.38
2023-03-18T00:56:20.466Z,9.36
2023-03-18T00:58:48.048Z,9.36
2023-03-18T01:01:15.351Z,9.35
2023-03-18T01:03:42.466Z,9.34
2023-03-18T01:07:02.610Z,9.27
2023-03-18T01:09:28.963Z,9.24
2023-03-18T01:11:55.425Z,9.13
2023-03-18T01:14:21.784Z,9.07
2023-03-18T01:16:48.136Z,9.03
2023-03-18T01:19:15.920Z,9.00
2023-03-18T01:21:43.181Z,8.90
2023-03-18T01:24:10.423Z,8.80
2023-03-18T01:26:36.882Z,8.79
2023-03-18T01:29:03.937Z,8.74
2023-03-18T01:31:30.415Z,8.71
2023-03-18T01:33:56.764Z,8.72
2023-03-18T01:36:23.094Z,8.68
2023-03-18T01:38:49.481Z,8.68
2023-03-18T01:41:17.129Z,8.66
2023-03-18T01:43:43.980Z,8.64
2023-03-18T01:46:30.338Z,8.65
2023-03-18T01:48:57.414Z,8.61
2023-03-18T01:51:26.548Z,8.57
2023-03-18T01:53:53.620Z,8.50
2023-03-18T01:56:20.821Z,8.42
2023-03-18T01:58:52.454Z,8.44
2023-03-18T02:01:26.046Z,8.38
2023-03-18T02:03:54.002Z,8.38
2023-03-18T02:06:20.344Z,8.37
2023-03-18T02:08:46.671Z,8.44
2023-03-18T02:11:13.448Z,8.45
2023-03-18T02:13:43.092Z,8.44
2023-03-18T02:16:15.485Z,8.46
2023-03-18T02:18:47.152Z,8.41
2023-03-18T02:21:20.610Z,8.37
2023-03-18T02:24:16.628Z,8.42
2023-03-18T02:26:52.119Z,8.39
2023-03-18T02:29:20.055Z,8.35
2023-03-18T02:31:47.501Z,8.36
2023-03-18T02:34:15.437Z,8.39
2023-03-18T02:36:41.966Z,8.37
2023-03-18T02:39:12.619Z,8.38
2023-03-18T02:41:39.451Z,8.36
2023-03-18T02:44:06.348Z,8.36
2023-03-18T02:46:41.379Z,8.29
2023-03-18T02:49:08.662Z,8.34
2023-03-18T02:51:36.893Z,8.34
2023-03-18T02:54:10.473Z,8.34
2023-03-18T02:56:38.334Z,8.34
2023-03-18T02:59:05.391Z,8.35
2023-03-18T03:01:33.522Z,8.33
2023-03-18T03:04:00.761Z,8.32
2023-03-18T03:06:27.177Z,8.40
2023-03-18T03:08:53.605Z,8.36
2023-03-18T03:11:20.681Z,8.34
2023-03-18T03:13:47.216Z,8.30
2023-03-18T03:16:15.642Z,8.31
2023-03-18T03:18:43.252Z,8.31
2023-03-18T03:21:11.247Z,8.31
2023-03-18T03:23:38.627Z,8.28
2023-03-18T03:26:06.610Z,8.29
2023-03-18T03:28:33.921Z,8.28
2023-03-18T03:31:01.472Z,8.25
2023-03-18T03:33:28.571Z,8.23
2023-03-18T03:35:55.214Z,8.20
2023-03-18T03:38:23.004Z,8.18
2023-03-18T03:40:53.798Z,8.14
2023-03-18T03:43:20.857Z,8.12
2023-03-18T03:45:47.251Z,8.07
2023-03-18T03:48:14.369Z,8.04
2023-03-18T03:50:41.221Z,8.00
2023-03-18T03:53:07.989Z,8.00
2023-03-18T03:55:34.397Z,8.04
2023-03-18T03:58:01.022Z,7.92
2023-03-18T04:00:28.045Z,7.90
2023-03-18T04:02:54.680Z,7.89
2023-03-18T04:05:24.410Z,7.95
2023-03-18T04:07:52.204Z,7.95
2023-03-18T04:10:20.324Z,7.97
2023-03-18T04:12:47.271Z,7.97
2023-03-18T04:15:15.342Z,7.93
2023-03-18T04:17:41.770Z,7.89
2023-03-18T04:20:08.821Z,7.95
2023-03-18T04:22:36.112Z,7.95
2023-03-18T04:25:02.454Z,7.92
2023-03-18T04:27:28.845Z,7.88
2023-03-18T04:29:55.392Z,7.85
2023-03-18T04:32:21.779Z,7.76
2023-03-18T04:34:48.425Z,7.74
2023-03-18T04:37:19.678Z,7.73
2023-03-18T04:39:49.662Z,7.67
2023-03-18T04:42:17.749Z,7.58
2023-03-18T04:44:45.222Z,7.66
2023-03-18T04:47:12.599Z,7.63
2023-03-18T04:49:39.546Z,7.57
2023-03-18T04:52:07.333Z,7.54
2023-03-18T04:54:33.954Z,7.55
2023-03-18T04:57:00.716Z,7.59
2023-03-18T04:59:27.124Z,7.60
2023-03-18T05:01:54.034Z,7.68
2023-03-18T05:04:22.043Z,7.67
2023-03-18T05:06:48.361Z,7.70
2023-03-18T05:09:14.783Z,7.70
2023-03-18T05:11:41.162Z,7.65
2023-03-18T05:14:07.586Z,7.62
2023-03-18T05:16:33.901Z,7.58
2023-03-18T05:19:00.331Z,7.59
2023-03-18T05:21:27.375Z,7.52
2023-03-18T05:23:54.297Z,7.52
2023-03-18T05:26:20.581Z,7.46
2023-03-18T05:28:46.944Z,7.49
2023-03-18T05:31:13.334Z,7.45
2023-03-18T05:33:42.133Z,7.50
2023-03-18T05:36:09.179Z,7.41
2023-03-18T05:38:35.560Z,7.46
2023-03-18T05:41:01.924Z,7.46
2023-03-18T05:43:28.372Z,7.40
2023-03-18T05:45:55.157Z,7.38
2023-03-18T05:48:21.624Z,7.30
2023-03-18T05:50:48.995Z,7.35
2023-03-18T05:53:16.703Z,7.35
2023-03-18T05:55:43.864Z,7.42
2023-03-18T05:58:11.062Z,7.40
2023-03-18T06:00:37.573Z,7.46
2023-03-18T06:03:04.400Z,7.45
2023-03-18T06:05:31.175Z,7.42
2023-03-18T06:07:58.567Z,7.42
2023-03-18T06:10:25.306Z,7.43
2023-03-18T06:12:52.278Z,7.48
2023-03-18T06:15:19.180Z,7.51
2023-03-18T06:17:46.232Z,7.47
2023-03-18T06:20:14.188Z,7.51
2023-03-18T06:22:40.611Z,7.46
2023-03-18T06:25:08.226Z,7.38
2023-03-18T06:27:35.506Z,7.38
2023-03-18T06:30:05.238Z,7.38
2023-03-18T06:32:32.086Z,7.42
2023-03-18T06:34:58.620Z,7.41
2023-03-18T06:37:24.999Z,7.41
2023-03-18T06:39:51.318Z,7.39
2023-03-18T06:42:17.808Z,7.42
2023-03-18T06:44:50.387Z,7.44
2023-03-18T06:47:22.155Z,7.49
2023-03-18T06:49:50.704Z,7.56
2023-03-18T06:52:19.008Z,7.68
2023-03-18T06:54:46.051Z,7.63
2023-03-18T06:57:13.383Z,7.76
2023-03-18T06:59:39.870Z,7.80
2023-03-18T07:02:08.436Z,7.89
2023-03-18T07:04:35.472Z,7.97
2023-03-18T07:07:02.252Z,8.05
2023-03-18T07:09:28.826Z,8.10
2023-03-18T07:11:55.182Z,8.24
2023-03-18T07:14:21.732Z,8.31
2023-03-18T07:16:48.566Z,8.35
2023-03-18T07:19:15.214Z,8.47
2023-03-18T07:21:42.888Z,8.50
2023-03-18T07:24:09.652Z,8.64
2023-03-18T07:26:37.333Z,8.75
2023-03-18T07:29:05.143Z,8.84
2023-03-18T07:31:31.532Z,8.94
2023-03-18T07:33:58.034Z,9.09
2023-03-18T07:36:25.127Z,9.23
2023-03-18T07:38:51.789Z,9.37
2023-03-18T07:41:18.156Z,9.48
2023-03-18T07:43:44.990Z,9.57
2023-03-18T07:46:11.521Z,9.90
2023-03-18T07:48:37.957Z,10.08
2023-03-18T07:51:04.611Z,10.13
2023-03-18T07:53:30.985Z,10.38
2023-03-18T07:55:57.494Z,10.44
2023-03-18T07:58:24.531Z,10.55
2023-03-18T08:00:52.595Z,10.57
2023-03-18T08:06:14.881Z,10.88
2023-03-18T08:08:42.013Z,10.92
2023-03-18T08:11:09.265Z,10.82
2023-03-18T08:13:36.858Z,10.70
2023-03-18T08:16:03.366Z,10.67
2023-03-18T08:18:29.736Z,10.98
2023-03-18T08:20:56.555Z,11.09
2023-03-18T08:23:23.760Z,11.38
2023-03-18T08:25:50.798Z,11.18
2023-03-18T08:28:18.017Z,11.00
2023-03-18T08:30:44.713Z,11.19
2023-03-18T08:33:11.327Z,11.46
2023-03-18T08:35:41.624Z,11.67
2023-03-18T08:38:08.126Z,11.78
2023-03-18T08:40:34.801Z,11.90
2023-03-18T08:43:01.459Z,12.11
2023-03-18T08:45:28.579Z,12.29
2023-03-18T08:47:55.503Z,12.55
2023-03-18T08:50:22.704Z,12.64
2023-03-18T08:52:49.054Z,12.79
2023-03-18T08:55:16.280Z,13.15
2023-03-18T10:08:01.761Z,16.27
2023-03-18T10:10:42.126Z,16.49
2023-03-18T10:13:37.825Z,16.70
2023-03-18T10:24:35.582Z,16.44
2023-03-18T10:27:22.182Z,16.39
2023-03-18T10:30:27.349Z,16.67
2023-03-18T10:33:03.811Z,16.85
2023-03-18T10:35:41.144Z,17.19
2023-03-18T10:38:36.523Z,17.49
2023-03-18T10:41:15.917Z,17.08
2023-03-18T10:43:42.991Z,17.33
2023-03-18T10:46:14.792Z,17.62
2023-03-18T10:48:55.631Z,18.10
2023-03-18T10:51:38.224Z,18.14
2023-03-18T10:54:15.268Z,18.33
2023-03-18T10:56:42.769Z,18.38
2023-03-18T10:59:15.319Z,18.03
2023-03-18T11:01:45.510Z,18.29
2023-03-18T11:04:14.905Z,18.47
2023-03-18T11:06:51.041Z,18.77
2023-03-18T11:09:20.357Z,18.76
2023-03-18T11:11:56.097Z,18.76
2023-03-18T11:14:31.869Z,18.48
2023-03-18T11:17:20.208Z,18.80
2023-03-18T11:20:06.800Z,18.65
2023-03-18T11:22:43.675Z,18.60
2023-03-18T11:28:08.812Z,17.69
2023-03-18T11:30:48.502Z,18.46
2023-03-18T11:33:26.146Z,18.31
2023-03-18T11:36:02.806Z,18.45
2023-03-18T11:38:39.791Z,18.43
2023-03-18T11:41:09.086Z,18.13
2023-03-18T11:43:37.757Z,18.05
2023-03-18T11:46:09.197Z,18.75
2023-03-18T11:48:39.258Z,18.55
2023-03-18T11:51:24.177Z,18.54
2023-03-18T11:54:19.466Z,18.93
2023-03-18T11:57:15.458Z,18.86
2023-03-18T11:59:50.878Z,19.29
2023-03-18T12:02:35.480Z,19.30
2023-03-18T12:05:21.328Z,19.27
2023-03-18T12:08:14.656Z,19.29
2023-03-18T12:10:48.415Z,19.29
2023-03-18T12:13:29.602Z,19.41
2023-03-18T12:16:06.270Z,19.50
2023-03-18T12:19:32.993Z,19.69
2023-03-18T12:22:37.147Z,19.80
2023-03-18T12:25:44.386Z,19.41
2023-03-18T12:28:22.019Z,19.67
2023-03-18T12:31:14.536Z,19.94
2023-03-18T12:33:58.226Z,19.52
2023-03-18T12:36:39.632Z,19.32
2023-03-18T12:39:20.512Z,19.54
2023-03-18T12:42:12.054Z,19.37
2023-03-18T12:44:57.951Z,19.36
2023-03-18T12:47:40.133Z,19.26
2023-03-18T12:50:19.556Z,19.42
2023-03-18T12:53:00.827Z,19.53
2023-03-18T12:55:35.566Z,19.75
2023-03-18T12:58:11.862Z,19.82
2023-03-18T13:03:26.587Z,19.51
2023-03-18T13:05:55.563Z,19.38
2023-03-18T13:08:39.169Z,19.42
2023-03-18T13:11:13.488Z,19.29
2023-03-18T13:13:47.255Z,19.21
2023-03-18T13:16:14.935Z,19.04
2023-03-18T13:18:45.112Z,19.01
2023-03-18T13:21:17.949Z,18.92
2023-03-18T13:24:03.579Z,18.95
2023-03-18T13:26:52.229Z,18.90
2023-03-18T13:29:39.923Z,18.88
2023-03-18T13:32:22.686Z,19.01
2023-03-18T13:35:04.134Z,19.02
2023-03-18T13:37:49.326Z,19.05
2023-03-18T13:40:21.722Z,18.97
2023-03-18T13:42:49.427Z,18.96
2023-03-18T13:45:40.164Z,18.88
2023-03-18T13:48:16.313Z,18.75
2023-03-18T13:50:44.886Z,18.60
2023-03-18T13:53:32.961Z,18.41
2023-03-18T13:56:00.893Z,18.32
2023-03-18T13:58:45.423Z,18.43
2023-03-18T14:01:11.866Z,18.58
2023-03-18T14:03:41.250Z,18.78
2023-03-18T14:06:08.351Z,18.49
2023-03-18T14:08:44.079Z,18.78
2023-03-18T14:11:16.622Z,18.37
2023-03-18T14:13:44.746Z,18.49
2023-03-18T14:16:14.501Z,18.75
2023-03-18T14:18:41.349Z,18.86
2023-03-18T14:21:23.794Z,18.94
2023-03-18T14:24:13.751Z,18.87
2023-03-18T14:26:41.091Z,18.50
2023-03-18T14:29:07.359Z,18.42
2023-03-18T14:31:39.647Z,18.32
2023-03-18T14:34:18.227Z,18.37
2023-03-18T14:36:53.682Z,18.69
2023-03-18T14:39:35.946Z,18.51
2023-03-18T14:42:06.845Z,18.46
2023-03-18T14:44:45.987Z,18.37
2023-03-18T14:47:39.814Z,18.36
2023-03-18T14:50:14.515Z,18.38
2023-03-18T14:52:43.262Z,18.18
2023-03-18T14:55:23.486Z,18.28
2023-03-18T14:57:51.019Z,18.26
2023-03-18T15:00:19.142Z,18.11
2023-03-18T15:02:45.931Z,18.17
2023-03-18T15:05:17.857Z,18.20
2023-03-18T15:07:50.276Z,18.07
2023-03-18T15:10:22.384Z,17.95
2023-03-18T15:13:10.593Z,17.99
2023-03-18T15:15:37.341Z,17.88
2023-03-18T15:18:18.480Z,17.74
2023-03-18T15:20:47.512Z,17.65
2023-03-18T15:23:14.798Z,17.42
2023-03-18T15:25:43.937Z,17.26
2023-03-18T15:28:19.393Z,17.19
2023-03-18T15:30:58.740Z,17.14
2023-03-18T15:33:43.854Z,17.39
2023-03-18T15:36:15.285Z,17.41
2023-03-18T15:38:49.855Z,17.41
2023-03-18T15:41:21.521Z,17.32
2023-03-18T15:43:51.450Z,17.04
2023-03-18T15:46:32.071Z,17.17
2023-03-18T15:49:01.939Z,17.16
2023-03-18T15:51:42.075Z,17.19
2023-03-18T15:54:26.426Z,17.31
2023-03-18T15:56:55.230Z,17.09
2023-03-18T15:59:28.250Z,17.09
2023-03-18T16:01:58.906Z,17.06
2023-03-18T16:04:30.389Z,17.09
2023-03-18T16:06:56.814Z,17.13
2023-03-18T16:09:25.459Z,17.07
2023-03-18T16:11:55.462Z,17.01
2023-03-18T16:14:25.932Z,16.90
2023-03-18T16:16:52.903Z,16.59
2023-03-18T16:19:27.792Z,16.39
2023-03-18T16:21:56.435Z,16.42
2023-03-18T16:24:24.370Z,16.40
2023-03-18T16:26:52.983Z,16.46
2023-03-18T16:29:29.527Z,16.49
2023-03-18T16:31:56.163Z,16.41
2023-03-18T16:34:22.665Z,16.44
2023-03-18T16:36:54.541Z,16.48
2023-03-18T16:39:24.364Z,16.52
2023-03-18T16:41:52.215Z,16.46
2023-03-18T16:44:22.008Z,16.59
2023-03-18T16:46:52.158Z,16.70
2023-03-18T16:49:21.163Z,16.79
2023-03-18T16:51:49.518Z,16.81
2023-03-18T16:54:19.446Z,16.48
2023-03-18T16:56:49.675Z,16.29
2023-03-18T16:59:16.043Z,16.19
2023-03-18T17:01:43.785Z,16.06
2023-03-18T17:04:28.599Z,15.94
2023-03-18T17:06:56.898Z,15.83
2023-03-18T17:09:24.932Z,15.74
2023-03-18T17:11:53.689Z,15.63
2023-03-18T17:14:31.786Z,15.57
2023-03-18T17:17:00.850Z,15.41
2023-03-18T17:19:27.287Z,15.35
2023-03-18T17:21:54.109Z,15.26
2023-03-18T17:24:22.741Z,15.16
2023-03-18T17:26:51.460Z,15.07
2023-03-18T17:29:26.587Z,14.94
2023-03-18T17:31:54.374Z,14.79
2023-03-18T17:34:21.327Z,14.73
2023-03-18T17:36:47.984Z,14.63
2023-03-18T17:39:15.279Z,14.52
2023-03-18T17:41:42.500Z,14.37
2023-03-18T17:44:23.983Z,14.30
2023-03-18T17:46:50.897Z,14.22
2023-03-18T17:49:20.863Z,14.12
2023-03-18T17:51:50.495Z,13.98
2023-03-18T17:54:20.643Z,13.93
2023-03-18T17:56:47.796Z,13.82
2023-03-18T17:59:19.419Z,13.69
2023-03-18T18:01:49.346Z,13.62
2023-03-18T18:04:19.335Z,13.49
2023-03-18T18:06:48.108Z,13.45
2023-03-18T18:09:15.917Z,13.34
2023-03-18T18:11:45.654Z,13.21
2023-03-18T18:14:19.874Z,13.11
2023-03-18T18:16:47.639Z,13.05
2023-03-18T18:19:14.831Z,12.99
2023-03-18T18:21:43.941Z,12.96
2023-03-18T18:24:16.104Z,12.89
2023-03-18T18:26:42.432Z,12.84
2023-03-18T18:29:14.233Z,12.79
2023-03-18T18:31:40.674Z,12.78
2023-03-18T18:34:07.442Z,12.70
2023-03-18T18:36:33.799Z,12.66
2023-03-18T18:39:00.243Z,12.61
2023-03-18T18:41:27.320Z,12.57
2023-03-18T18:43:55.398Z,12.53
2023-03-18T18:46:22.033Z,12.47
2023-03-18T18:48:49.020Z,12.46
2023-03-18T18:51:18.427Z,12.42
2023-03-18T18:53:46.306Z,12.37
2023-03-18T18:56:28.986Z,12.23
2023-03-18T18:58:56.523Z,12.13
2023-03-18T19:01:23.181Z,12.06
2023-03-18T19:03:49.777Z,11.88
2023-03-18T19:06:31.085Z,11.82
2023-03-18T19:09:04.354Z,11.68
2023-03-18T19:11:30.847Z,11.57
2023-03-18T19:14:17.572Z,11.48
2023-03-18T19:16:44.240Z,11.50
2023-03-18T19:19:14.964Z,11.39
2023-03-18T19:21:42.564Z,11.34
2023-03-18T19:24:28.246Z,11.20
2023-03-18T19:27:00.020Z,11.15
2023-03-18T19:29:26.566Z,11.13
2023-03-18T19:31:54.276Z,11.04
2023-03-18T19:34:21.513Z,11.02
2023-03-18T19:36:49.702Z,11.03
2023-03-18T19:39:18.247Z,10.96
2023-03-18T19:41:47.093Z,10.88
2023-03-18T19:44:22.290Z,10.92
2023-03-18T19:46:51.226Z,10.90
2023-03-18T19:49:27.862Z,10.84
2023-03-18T19:51:55.058Z,10.71
2023-03-18T19:54:27.512Z,10.76
2023-03-18T19:56:55.666Z,10.62
2023-03-18T19:59:24.766Z,10.56
2023-03-18T20:01:51.670Z,10.44
2023-03-18T20:04:20.061Z,10.42
2023-03-18T20:06:50.497Z,10.45
2023-03-18T20:09:19.812Z,10.42
2023-03-18T20:11:49.037Z,10.40
2023-03-18T20:14:26.119Z,10.36
2023-03-18T20:16:54.040Z,10.30
2023-03-18T20:19:20.960Z,10.20
2023-03-18T20:21:48.451Z,10.08
2023-03-18T20:24:18.452Z,10.12
2023-03-18T20:26:44.933Z,9.98
2023-03-18T20:29:19.711Z,9.99
2023-03-18T20:31:46.519Z,9.96
2023-03-18T20:34:14.103Z,9.90
2023-03-18T20:36:40.991Z,9.88
2023-03-18T20:39:20.402Z,9.88
2023-03-18T20:41:47.372Z,9.82
2023-03-18T20:44:13.993Z,9.78
2023-03-18T20:46:42.639Z,9.81
2023-03-18T20:49:09.514Z,9.76
2023-03-18T20:51:40.627Z,9.77
2023-03-18T20:54:25.321Z,9.64
2023-03-18T20:56:51.775Z,9.47
2023-03-18T20:59:18.119Z,9.37
2023-03-18T21:01:44.584Z,9.29
2023-03-18T21:04:12.702Z,9.25
2023-03-18T21:06:40.165Z,9.31
2023-03-18T21:09:09.967Z,9.24
2023-03-18T21:11:36.990Z,9.19
2023-03-18T21:14:04.481Z,9.20
2023-03-18T21:16:32.642Z,9.28
2023-03-18T21:18:59.739Z,9.33
2023-03-18T21:21:34.944Z,9.34
2023-03-18T21:24:01.760Z,9.36
2023-03-18T21:26:28.370Z,9.36
2023-03-18T21:28:54.803Z,9.39
2023-03-18T21:31:27.189Z,9.42
2023-03-18T21:33:55.146Z,9.46
2023-03-18T21:36:22.299Z,9.53
2023-03-18T21:38:48.983Z,9.55
2023-03-18T21:41:25.458Z,9.60
2023-03-18T21:43:51.799Z,9.65
2023-03-18T21:46:21.074Z,9.65
2023-03-18T21:48:47.506Z,9.59
2023-03-18T21:51:39.223Z,9.60
2023-03-18T21:54:17.780Z,9.58
2023-03-18T21:56:44.218Z,9.58
2023-03-18T21:59:10.536Z,9.56
2023-03-18T22:01:36.899Z,9.53
2023-03-18T22:04:03.738Z,9.55
2023-03-18T22:06:30.166Z,9.50
2023-03-18T22:08:57.148Z,9.51
2023-03-18T22:11:23.458Z,9.53
2023-03-18T22:13:50.089Z,9.53
2023-03-18T22:16:18.651Z,9.50
2023-03-18T22:18:46.341Z,9.49
2023-03-18T22:21:27.357Z,9.50
2023-03-18T22:23:54.972Z,9.52
2023-03-18T22:26:21.749Z,9.55
2023-03-18T22:28:48.423Z,9.56
2023-03-18T22:31:19.180Z,9.56
2023-03-18T22:33:46.358Z,9.52
2023-03-18T22:36:14.409Z,9.53
2023-03-18T22:38:40.898Z,9.54
2023-03-18T22:41:17.234Z,9.52
2023-03-18T22:43:43.818Z,9.51
2023-03-18T22:46:11.607Z,9.41
2023-03-18T22:48:38.131Z,9.42
2023-03-18T22:51:05.423Z,9.44
2023-03-18T22:53:35.568Z,9.48
2023-03-18T22:56:14.636Z,9.40
2023-03-18T22:58:41.259Z,9.48
2023-03-18T23:01:09.550Z,9.47
2023-03-18T23:03:40.175Z,9.50
2023-03-18T23:06:07.512Z,9.52
2023-03-18T23:08:33.811Z,9.55
2023-03-18T23:11:01.687Z,9.55
2023-03-18T23:13:38.934Z,9.60
2023-03-18T23:16:08.133Z,9.60
2023-03-18T23:18:35.334Z,9.57
2023-03-18T23:21:01.825Z,9.56
2023-03-18T23:23:30.186Z,9.53
2023-03-18T23:25:57.022Z,9.59
2023-03-18T23:28:23.414Z,9.52
2023-03-18T23:30:52.105Z,9.56
2023-03-18T23:33:18.943Z,9.51
2023-03-18T23:35:47.396Z,9.43
2023-03-18T23:38:13.751Z,9.39
2023-03-18T23:40:40.199Z,9.42
2023-03-18T23:43:08.796Z,9.42
2023-03-18T23:45:37.173Z,9.39
2023-03-18T23:48:04.194Z,9.36
2023-03-18T23:50:30.488Z,9.38
2023-03-18T23:52:56.970Z,9.30
2023-03-18T23:55:34.096Z,9.41
2023-03-18T23:58:09.753Z,9.43
